Time;durP1;ratioP1;P1;durP2;ratioP2;P2;SDS_P1;SDS_P2;PMS_P1;PMS_P2;Temp;Humidity;BMP_temperature;BMP_pressure;BME280_temperature;BME280_humidity;BME280_pressure;Samples;Min_cycle;Max_cycle;Signal;HPM_P1;HPM_P2
2021/06/23 06:34:18;;;;;;;12.05;2.75;;;;;;;18.52;68.44;100997.93;1729246;80;25784;-74
2021/06/23 06:36:44;;;;;;;10.65;2.47;;;;;;;18.63;68.71;101003.50;1739234;80;26028;-77
2021/06/23 06:39:12;;;;;;;14.98;3.58;;;;;;;18.66;67.92;101002.80;1734176;80;25806;-77
2021/06/23 06:41:40;;;;;;;10.10;2.40;;;;;;;18.66;67.83;101002.80;1739123;80;27461;-77
2021/06/23 06:44:08;;;;;;;8.90;2.70;;;;;;;18.68;67.70;101003.55;1733675;80;26537;-78
2021/06/23 06:46:36;;;;;;;7.85;2.75;;;;;;;18.57;66.54;101003.90;1734734;80;25636;-78
2021/06/23 06:49:04;;;;;;;12.98;2.77;;;;;;;18.49;66.62;101005.80;1741695;80;25760;-81
2021/06/23 06:51:31;;;;;;;14.20;3.80;;;;;;;18.44;66.32;101014.75;1746395;80;25854;-81
2021/06/23 06:53:57;;;;;;;12.28;2.80;;;;;;;18.35;66.67;101009.48;1734710;80;28151;-78
2021/06/23 06:56:24;;;;;;;15.60;3.72;;;;;;;18.25;66.82;101015.17;1745629;80;25786;-79
2021/06/23 06:58:50;;;;;;;9.78;3.47;;;;;;;18.25;67.14;101021.95;1744654;80;25780;-78
2021/06/23 07:01:17;;;;;;;11.63;2.92;;;;;;;18.35;67.43;101024.89;1727611;80;25984;-79
2021/06/23 07:03:45;;;;;;;11.95;2.87;;;;;;;18.46;67.52;101019.09;1735027;80;25751;-78
2021/06/23 07:06:11;;;;;;;13.80;3.30;;;;;;;18.57;67.64;101027.84;1732950;80;27550;-78
2021/06/23 07:08:39;;;;;;;8.40;2.35;;;;;;;18.68;66.56;101025.77;1745760;80;25713;-78
2021/06/23 07:11:05;;;;;;;14.55;2.90;;;;;;;18.69;66.50;101027.50;1699729;82;26307;-79
2021/06/23 07:13:33;;;;;;;10.85;2.83;;;;;;;18.77;66.66;101031.89;1673126;84;25754;-75
2021/06/23 07:16:01;;;;;;;11.97;3.27;;;;;;;18.87;66.69;101030.75;1679088;83;25804;-77
2021/06/23 07:18:28;;;;;;;12.63;4.30;;;;;;;18.96;66.69;101037.75;1683319;83;27358;-79
2021/06/23 07:20:56;;;;;;;15.05;4.00;;;;;;;18.99;66.66;101034.81;1673987;84;25804;-78
2021/06/23 07:23:22;;;;;;;13.30;3.52;;;;;;;18.95;66.77;101038.73;1676184;82;25828;-80
2021/06/23 07:25:50;;;;;;;10.10;4.15;;;;;;;18.93;66.95;101041.17;1675655;84;25911;-79
2021/06/23 07:28:22;;;;;;;12.45;3.05;;;;;;;18.97;66.85;101044.92;1676664;83;25994;-80
2021/06/23 07:30:46;;;;;;;11.25;3.37;;;;;;;19.01;66.91;101050.51;1675348;83;27410;-80
2021/06/23 07:33:12;;;;;;;7.90;3.17;;;;;;;19.01;66.83;101043.72;1670935;83;26337;-72
2021/06/23 07:38:25;;;;;;;13.15;3.60;;;;;;;18.95;67.00;101044.16;1679016;83;25824;-75
2021/06/23 07:41:01;;;;;;;16.00;3.72;;;;;;;18.94;67.18;101038.34;1678394;83;25853;-75
2021/06/23 07:43:22;;;;;;;10.93;3.27;;;;;;;18.95;66.85;101037.37;1676430;83;28100;-77
2021/06/23 07:45:55;;;;;;;16.97;4.00;;;;;;;18.94;66.87;101038.34;1678463;83;25832;-77
2021/06/23 07:48:27;;;;;;;8.65;3.80;;;;;;;18.98;66.95;101043.07;1678100;82;25773;-76
2021/06/23 07:51:06;;;;;;;6.25;3.50;;;;;;;19.02;66.92;101050.89;1671399;83;25863;-78
2021/06/23 07:53:38;;;;;;;12.68;4.35;;;;;;;18.98;66.62;101039.87;1725567;81;26511;-77
2021/06/23 07:56:08;;;;;;;9.25;4.10;;;;;;;18.98;66.64;101043.94;1730418;81;27481;-76
2021/06/23 08:01:59;;;;;;;10.95;4.00;;;;;;;19.04;66.32;101042.14;1694107;82;25579;-68
2021/06/23 08:09:32;;;;;;;10.85;3.75;;;;;;;19.37;66.42;101040.17;1687512;82;26587;-68
2021/06/23 08:11:55;;;;;;;12.65;5.05;;;;;;;19.41;66.48;101042.17;1685036;83;26746;-68
2021/06/23 08:14:20;;;;;;;14.43;3.70;;;;;;;19.42;66.61;101043.91;1684878;83;25826;-68
2021/06/23 08:16:48;;;;;;;10.75;3.87;;;;;;;19.48;66.52;101048.02;1688613;83;25935;-68
2021/06/23 08:19:15;;;;;;;13.00;4.15;;;;;;;19.54;66.55;101055.27;1684686;83;26447;-68
2021/06/23 08:21:42;;;;;;;13.58;3.30;;;;;;;19.63;66.55;101064.09;1690370;83;29543;-68
2021/06/23 08:24:10;;;;;;;16.37;3.80;;;;;;;19.71;66.39;101054.88;1692604;82;25890;-68
2021/06/23 08:26:35;;;;;;;9.98;4.30;;;;;;;19.73;65.86;101055.62;1686311;83;25780;-68
2021/06/23 08:29:01;;;;;;;12.85;3.25;;;;;;;19.73;65.65;101058.35;1676959;83;25739;-69
2021/06/23 08:31:30;;;;;;;6.90;3.37;;;;;;;19.80;65.56;101059.25;1674010;82;25795;-66
2021/06/23 08:33:55;;;;;;;14.47;3.77;;;;;;;19.87;65.20;101064.60;1692268;83;27534;-66
2021/06/23 08:36:22;;;;;;;12.07;3.80;;;;;;;19.98;64.68;101061.45;1648399;85;26093;-66
2021/06/23 08:38:48;;;;;;;15.60;3.47;;;;;;;20.12;63.54;101044.56;1671422;84;25699;-66
2021/06/23 08:41:16;;;;;;;9.70;4.08;;;;;;;20.12;63.54;101044.56;1667197;84;27245;-67
2021/06/23 08:43:43;;;;;;;15.78;3.83;;;;;;;20.15;63.45;101044.32;1667937;84;25747;-66
2021/06/23 08:46:12;;;;;;;6.78;3.65;;;;;;;20.01;63.46;101011.37;1680784;83;28250;-67
2021/06/23 08:48:41;;;;;;;14.80;3.65;;;;;;;20.01;63.46;101011.37;1677682;83;25998;-66
2021/06/23 08:51:11;;;;;;;10.28;3.62;;;;;;;20.20;63.83;101040.26;1666163;84;25800;-67
2021/06/23 08:53:38;;;;;;;16.30;4.17;;;;;;;20.20;63.83;101040.26;1673036;84;25905;-67
2021/06/23 08:56:07;;;;;;;11.95;3.45;;;;;;;20.31;63.76;101039.42;1669868;84;25779;-67
2021/06/23 08:58:36;;;;;;;11.53;3.55;;;;;;;20.49;63.65;101043.47;1671012;84;27465;-67
2021/06/23 09:01:04;;;;;;;12.13;3.47;;;;;;;20.60;63.28;101040.77;1664028;84;25865;-68
2021/06/23 09:03:31;;;;;;;8.03;3.42;;;;;;;20.83;63.22;101047.09;1665827;84;25818;-67
2021/06/23 09:06:01;;;;;;;9.30;2.77;;;;;;;20.83;63.22;101047.09;1666047;84;25887;-67
2021/06/23 09:08:37;;;;;;;5.40;2.83;;;;;;;20.94;63.51;101049.82;1661462;84;25793;-66
2021/06/23 09:11:21;;;;;;;11.53;4.10;;;;;;;21.03;63.16;101050.94;1665102;83;28440;-66
2021/06/23 09:13:51;;;;;;;8.85;3.45;;;;;;;21.15;63.22;101058.13;1665452;84;26637;-66
2021/06/23 09:16:17;;;;;;;12.25;3.37;;;;;;;21.29;63.36;101052.95;1666071;84;26585;-66
2021/06/23 09:18:44;;;;;;;9.05;3.58;;;;;;;21.37;63.03;101045.87;1660863;84;26481;-66
2021/06/23 09:21:15;;;;;;;10.88;2.92;;;;;;;;;;1664300;84;25756;-65
2021/06/23 09:23:52;;;;;;;17.80;3.33;;;;;;;21.69;63.23;101055.48;1709682;82;27484;-66
2021/06/23 09:26:26;;;;;;;14.20;3.58;;;;;;;21.92;63.12;101052.19;1706779;82;26385;-65
2021/06/23 09:29:14;;;;;;;33.35;5.22;;;;;;;22.16;62.54;101061.56;1706545;82;26608;-66
2021/06/23 09:31:57;;;;;;;33.83;4.37;;;;;;;22.22;61.17;101056.07;1702069;82;25678;-66
2021/06/23 09:34:34;;;;;;;15.53;4.17;;;;;;;22.22;61.47;101048.75;1692765;81;25845;-65
2021/06/23 09:37:04;;;;;;;27.40;3.35;;;;;;;22.38;61.61;101042.83;1680111;82;27151;-65
2021/06/23 09:39:32;;;;;;;13.22;3.05;;;;;;;22.41;61.34;101045.80;1684057;82;25881;-66
2021/06/23 09:42:00;;;;;;;9.35;3.47;;;;;;;22.51;61.51;101046.73;1697280;82;25859;-66
2021/06/23 09:44:27;;;;;;;9.43;3.47;;;;;;;22.53;60.71;101036.03;1697137;82;25895;-65
2021/06/23 09:46:56;;;;;;;8.95;2.65;;;;;;;22.45;59.56;101033.61;1688991;82;26507;-66
2021/06/23 09:49:27;;;;;;;8.40;3.37;;;;;;;22.48;60.12;101043.77;1691874;82;27507;-65
2021/06/23 09:52:04;;;;;;;6.80;3.08;;;;;;;22.58;60.21;101043.83;1682252;82;25847;-66
2021/06/23 09:54:32;;;;;;;15.20;3.77;;;;;;;22.59;60.30;101049.16;1660816;82;25601;-66
2021/06/23 09:57:14;;;;;;;16.15;3.17;;;;;;;22.63;60.58;101053.86;1676766;82;26486;-67
2021/06/23 09:59:49;;;;;;;26.40;3.85;;;;;;;22.74;60.58;101051.05;1673880;82;25737;-66
2021/06/23 10:02:30;;;;;;;17.70;3.27;;;;;;;22.63;59.68;101060.19;1675675;82;27409;-66
2021/06/23 10:05:00;;;;;;;5.55;2.60;;;;;;;22.50;59.12;101058.66;1689266;82;25867;-66
2021/06/23 10:07:45;;;;;;;11.73;3.08;;;;;;;22.37;59.02;101064.81;1686058;82;25869;-66
2021/06/23 10:10:20;;;;;;;6.90;2.95;;;;;;;22.27;59.19;101062.88;1685201;82;25805;-66
2021/06/23 10:12:53;;;;;;;7.40;2.98;;;;;;;22.23;59.34;101052.34;1688224;82;25879;-66
2021/06/23 10:15:22;;;;;;;14.83;3.65;;;;;;;22.22;59.35;101055.57;1687805;82;27188;-66
2021/06/23 10:17:50;;;;;;;7.12;3.17;;;;;;;22.22;59.11;101060.17;1677862;82;25858;-66
2021/06/23 10:20:17;;;;;;;12.10;3.45;;;;;;;22.25;59.12;101056.67;1677600;82;25722;-66
2021/06/23 10:22:46;;;;;;;16.10;3.55;;;;;;;22.25;59.00;101064.00;1681982;82;26629;-65
2021/06/23 10:25:18;;;;;;;8.68;3.17;;;;;;;22.24;59.12;101057.67;1688819;82;25724;-66
2021/06/23 10:27:53;;;;;;;33.33;3.92;;;;;;;22.29;59.20;101049.95;1686793;82;28278;-65
2021/06/23 10:30:25;;;;;;;10.13;3.37;;;;;;;22.35;59.46;101052.66;1691193;82;25780;-66
2021/06/23 10:32:56;;;;;;;7.67;2.90;;;;;;;22.50;59.45;101054.56;1684132;82;30400;-66
2021/06/23 10:35:23;;;;;;;9.88;2.90;;;;;;;22.57;59.33;101058.49;1697991;81;25813;-65
2021/06/23 10:37:55;;;;;;;9.53;2.50;;;;;;;22.66;59.26;101050.36;1735919;81;25781;-66
2021/06/23 10:40:22;;;;;;;8.03;3.35;;;;;;;22.76;59.24;101052.28;1726648;81;26037;-68
2021/06/23 10:42:48;;;;;;;7.03;3.00;;;;;;;22.77;58.31;101046.69;1738686;80;26267;-68
2021/06/23 10:45:16;;;;;;;6.97;2.87;;;;;;;22.79;58.51;101044.71;1729617;81;25754;-66
2021/06/23 10:47:50;;;;;;;11.00;3.20;;;;;;;22.89;57.61;101051.09;1727936;81;26461;-64
2021/06/23 10:50:35;;;;;;;7.60;2.50;;;;;;;22.91;57.98;101050.97;1737657;81;25784;-64
2021/06/23 10:53:03;;;;;;;12.37;2.62;;;;;;;23.02;57.91;101035.84;1722686;80;25838;-64
2021/06/23 10:55:35;;;;;;;10.70;2.52;;;;;;;23.02;57.10;101034.97;1728263;81;26339;-64
2021/06/23 10:58:09;;;;;;;8.33;2.50;;;;;;;22.99;56.73;101032.01;1729093;81;25855;-64
2021/06/23 11:00:36;;;;;;;17.30;3.77;;;;;;;23.01;57.07;101034.11;1685812;82;25776;-64
2021/06/23 11:03:17;;;;;;;11.63;2.77;;;;;;;23.12;57.40;101025.81;1679342;83;25781;-63
2021/06/23 11:05:54;;;;;;;7.17;2.40;;;;;;;23.19;57.05;101019.28;1676441;83;28152;-63
2021/06/23 11:08:33;;;;;;;6.75;2.42;;;;;;;23.21;56.22;101021.38;1678800;82;25688;-63
2021/06/23 11:11:06;;;;;;;15.85;3.10;;;;;;;23.24;56.24;101030.67;1648943;84;25755;-63
2021/06/23 11:13:37;;;;;;;8.80;2.95;;;;;;;23.38;56.56;101030.79;1672067;83;27100;-63
2021/06/23 11:16:07;;;;;;;17.82;3.22;;;;;;;23.61;56.79;101027.69;1688449;83;25821;-64
2021/06/23 11:18:43;;;;;;;19.40;3.62;;;;;;;23.77;56.57;101029.87;1647439;83;28064;-63
2021/06/23 11:21:23;;;;;;;3.27;2.42;;;;;;;23.91;56.29;101028.59;1676163;83;26608;-64
2021/06/23 11:24:03;;;;;;;7.08;2.52;;;;;;;23.77;55.29;101027.13;1688465;82;25926;-63
2021/06/23 11:26:38;;;;;;;4.83;2.58;;;;;;;23.77;55.40;101027.13;1679138;83;26170;-62
2021/06/23 11:29:15;;;;;;;8.68;2.72;;;;;;;23.79;54.84;101029.73;1683243;83;25712;-63
2021/06/23 11:31:49;;;;;;;11.57;3.30;;;;;;;23.77;54.66;101029.00;1739423;80;29543;-63
2021/06/23 11:34:43;;;;;;;8.18;2.45;;;;;;;23.79;54.20;101026.98;1685463;82;25744;-63
2021/06/23 11:37:14;;;;;;;9.78;2.98;;;;;;;23.85;54.46;101042.34;1678953;83;25809;-63
2021/06/23 11:39:42;;;;;;;11.95;3.17;;;;;;;23.99;54.78;101042.93;1702315;82;25767;-63
2021/06/23 11:42:13;;;;;;;5.70;3.00;;;;;;;24.02;54.59;101044.02;1706845;81;25840;-63
2021/06/23 11:44:40;;;;;;;14.43;3.42;;;;;;;23.87;54.42;101041.70;1691526;82;27459;-63
2021/06/23 11:47:08;;;;;;;5.40;2.90;;;;;;;23.75;54.35;101047.44;1683336;82;26113;-63
2021/06/23 11:49:38;;;;;;;8.63;3.30;;;;;;;23.68;54.45;101045.77;1684390;82;25723;-63
2021/06/23 11:52:07;;;;;;;8.63;3.17;;;;;;;23.60;54.66;101051.08;1684517;82;26079;-62
2021/06/23 11:54:33;;;;;;;14.00;3.60;;;;;;;23.54;54.96;101057.12;1682531;82;25721;-62
2021/06/23 11:57:03;;;;;;;10.82;4.05;;;;;;;23.41;55.36;101061.94;1683741;82;27458;-62
2021/06/23 11:59:31;;;;;;;10.55;3.42;;;;;;;22.98;54.87;101022.94;1658296;84;26317;-63
2021/06/23 12:01:58;;;;;;;12.90;3.10;;;;;;;23.12;55.29;101064.59;1681429;83;25844;-64
2021/06/23 12:04:28;;;;;;;6.78;3.05;;;;;;;23.02;55.05;101056.84;1655975;84;25715;-63
2021/06/23 12:06:57;;;;;;;34.20;4.95;;;;;;;22.91;55.39;101039.53;1654893;84;26482;-63
2021/06/23 12:09:23;;;;;;;8.78;2.95;;;;;;;22.92;55.58;101035.79;1651242;84;26886;-63
2021/06/23 12:11:49;;;;;;;11.45;3.30;;;;;;;22.88;55.68;101036.20;1694232;83;25807;-64
2021/06/23 12:14:15;;;;;;;26.20;4.17;;;;;;;22.81;55.72;101044.08;1715308;81;25787;-63
2021/06/23 12:16:44;;;;;;;193.17;13.45;;;;;;;22.73;55.89;101046.59;1730694;81;26642;-64
2021/06/23 12:19:11;;;;;;;16.62;4.00;;;;;;;22.51;56.22;101028.47;1720156;81;26045;-63
2021/06/23 12:21:39;;;;;;;13.28;3.83;;;;;;;22.43;56.27;101041.06;1736350;80;28154;-63
2021/06/23 12:24:08;;;;;;;7.67;3.40;;;;;;;22.30;56.63;101037.16;1724180;81;25812;-62
2021/06/23 12:26:37;;;;;;;28.25;4.58;;;;;;;22.16;56.82;101043.81;1717632;81;25712;-62
2021/06/23 12:29:07;;;;;;;42.65;5.45;;;;;;;22.10;57.14;101047.56;1706789;82;26237;-62
2021/06/23 12:31:33;;;;;;;49.88;5.55;;;;;;;22.10;57.43;101063.94;1722723;81;26533;-63
2021/06/23 12:33:59;;;;;;;79.67;7.00;;;;;;;22.07;57.67;101071.03;1736460;79;27499;-63
2021/06/23 12:36:29;;;;;;;15.50;4.05;;;;;;;22.06;57.97;101068.80;1718449;80;25775;-62
2021/06/23 12:38:56;;;;;;;9.35;3.15;;;;;;;22.08;58.33;101070.90;1703125;82;25756;-62
2021/06/23 12:41:23;;;;;;;14.60;3.37;;;;;;;22.05;58.26;101073.89;1711808;80;27898;-62
2021/06/23 12:43:51;;;;;;;7.83;4.70;;;;;;;22.02;58.14;101065.95;1704251;80;26243;-62
2021/06/23 12:46:17;;;;;;;11.00;3.95;;;;;;;22.06;58.27;101065.20;1705038;82;28018;-62
2021/06/23 12:48:45;;;;;;;9.85;3.33;;;;;;;22.12;58.32;101061.45;1705121;82;28465;-62
2021/06/23 12:51:12;;;;;;;47.53;5.20;;;;;;;22.25;58.57;101068.97;1707899;82;25890;-62
2021/06/23 12:53:40;;;;;;;7.95;3.55;;;;;;;22.33;58.86;101063.71;1706380;82;27936;-62
2021/06/23 12:56:06;;;;;;;11.12;3.92;;;;;;;22.44;58.89;101060.55;1709949;82;26537;-62
2021/06/23 12:58:33;;;;;;;6.33;3.12;;;;;;;22.48;58.67;101049.73;1712605;82;27509;-62
2021/06/23 13:01:00;;;;;;;9.18;3.50;;;;;;;22.65;58.87;101039.56;1711890;82;25857;-62
2021/06/23 13:03:26;;;;;;;8.30;4.12;;;;;;;22.80;58.93;101041.48;1709387;82;25944;-62
2021/06/23 13:05:52;;;;;;;8.93;3.17;;;;;;;22.93;59.07;101048.96;1706188;82;26784;-63
2021/06/23 13:08:18;;;;;;;10.00;2.92;;;;;;;23.05;59.11;101053.84;1711099;82;25780;-63
2021/06/23 13:10:47;;;;;;;21.40;3.47;;;;;;;23.05;59.01;101059.30;1705078;82;27631;-62
2021/06/23 13:13:15;;;;;;;11.97;3.75;;;;;;;22.96;59.18;101050.92;1704988;82;25947;-62
2021/06/23 13:15:41;;;;;;;12.20;3.70;;;;;;;22.87;58.93;101051.73;1704810;80;26425;-62
2021/06/23 13:21:51;;;;;;;10.90;3.72;;;;;;;22.91;59.09;101055.93;1726710;80;25941;-63
2021/06/23 13:24:22;;;;;;;10.72;3.52;;;;;;;23.16;59.04;101061.95;1707056;80;27392;-62
2021/06/23 13:29:54;;;;;;;11.75;3.50;;;;;;;23.62;58.66;101066.36;1700021;82;25765;-62
2021/06/23 13:32:20;;;;;;;11.45;4.05;;;;;;;23.77;58.48;101059.98;1704195;82;26064;-62
2021/06/23 13:34:47;;;;;;;9.23;3.58;;;;;;;23.92;57.95;101064.03;1708725;82;25772;-62
2021/06/23 13:37:13;;;;;;;13.00;4.28;;;;;;;24.09;57.62;101058.36;1704820;81;28411;-65
2021/06/23 13:39:47;;;;;;;26.05;4.05;;;;;;;24.30;57.56;101063.73;1703640;82;25747;-66
2021/06/23 13:42:14;;;;;;;18.30;3.25;;;;;;;24.52;57.42;101055.70;1706567;82;25769;-65
2021/06/23 13:44:42;;;;;;;9.00;3.50;;;;;;;24.70;57.26;101055.31;1706251;81;27777;-68
2021/06/23 13:47:09;;;;;;;10.15;3.40;;;;;;;24.93;57.14;101053.09;1700136;82;25889;-65
2021/06/23 13:49:36;;;;;;;14.75;3.47;;;;;;;25.02;56.61;101048.61;1676445;82;27351;-65
2021/06/23 13:52:03;;;;;;;22.85;3.83;;;;;;;25.05;56.62;101050.55;1716451;81;25689;-65
2021/06/23 13:54:30;;;;;;;21.15;4.75;;;;;;;25.24;56.47;101054.59;1717550;81;25846;-65
2021/06/23 13:56:57;;;;;;;16.77;3.08;;;;;;;25.33;56.20;101062.42;1715861;81;25790;-66
2021/06/23 13:59:24;;;;;;;15.20;3.40;;;;;;;25.22;56.18;101056.62;1719202;81;25799;-65
2021/06/23 14:01:50;;;;;;;16.00;3.47;;;;;;;25.24;56.21;101059.21;1713150;81;29562;-65
2021/06/23 14:04:17;;;;;;;14.63;5.25;;;;;;;25.35;56.20;101050.78;1694884;82;25836;-65
2021/06/23 14:06:43;;;;;;;13.28;3.70;;;;;;;25.45;55.88;101046.11;1707586;80;25809;-65
2021/06/23 14:09:09;;;;;;;21.55;3.95;;;;;;;25.54;55.60;101048.45;1711151;80;25849;-65
2021/06/23 14:11:35;;;;;;;8.00;3.42;;;;;;;25.56;55.36;101046.41;1705625;82;26217;-65
2021/06/23 14:14:03;;;;;;;6.50;2.95;;;;;;;25.48;55.36;101044.43;1695761;80;27596;-65
2021/06/23 14:16:30;;;;;;;6.95;2.55;;;;;;;25.46;55.46;101042.34;1728503;80;25787;-65
2021/06/23 14:18:56;;;;;;;12.37;3.30;;;;;;;25.40;55.02;101042.95;1722496;80;25897;-64
2021/06/23 14:21:25;;;;;;;21.25;3.40;;;;;;;25.42;55.03;101041.44;1706377;82;25916;-64
2021/06/23 14:23:53;;;;;;;42.20;5.00;;;;;;;25.66;55.13;101038.15;1710637;82;25792;-64
2021/06/23 14:26:19;;;;;;;45.55;5.72;;;;;;;26.06;54.95;101033.05;1706381;82;28386;-64
2021/06/23 14:28:46;;;;;;;8.95;3.37;;;;;;;26.38;54.94;101042.64;1706619;82;25887;-65
2021/06/23 14:31:12;;;;;;;7.08;2.62;;;;;;;26.54;53.49;101044.14;1705534;82;25689;-65
2021/06/23 14:33:38;;;;;;;5.58;2.50;;;;;;;26.74;52.79;101037.93;1708233;82;26343;-64
2021/06/23 14:36:07;;;;;;;4.47;2.15;;;;;;;26.76;52.50;101038.63;1710570;82;25871;-64
2021/06/23 14:38:33;;;;;;;7.95;2.30;;;;;;;26.99;51.57;101037.61;1708922;82;29465;-65
2021/06/23 14:40:59;;;;;;;13.83;3.75;;;;;;;27.01;51.60;101042.43;1707257;82;25756;-65
2021/06/23 14:43:27;;;;;;;9.43;2.62;;;;;;;27.12;50.73;101035.27;1708886;82;25807;-66
2021/06/23 14:45:53;;;;;;;9.18;3.10;;;;;;;26.67;50.12;101041.84;1706447;82;26334;-65
2021/06/23 14:48:23;;;;;;;9.20;2.95;;;;;;;26.33;50.66;101040.87;1706059;82;25853;-65
2021/06/23 14:50:50;;;;;;;15.78;3.95;;;;;;;26.24;51.00;101041.80;1716386;81;27369;-65
2021/06/23 14:53:16;;;;;;;8.98;2.50;;;;;;;26.31;51.17;101041.52;1729911;81;27182;-65
2021/06/23 14:55:42;;;;;;;7.95;2.95;;;;;;;26.30;50.85;101049.41;1734757;81;25779;-65
2021/06/23 14:58:08;;;;;;;7.10;2.27;;;;;;;26.19;50.86;101047.25;1727295;81;25925;-65
2021/06/23 15:00:39;;;;;;;6.42;2.33;;;;;;;26.13;50.98;101046.51;1717833;81;27027;-64
2021/06/23 15:03:08;;;;;;;19.30;3.35;;;;;;;26.10;51.03;101049.57;1719903;81;29535;-67
2021/06/23 15:05:34;;;;;;;15.18;3.22;;;;;;;25.97;50.97;101051.88;1735607;80;27164;-69
2021/06/23 15:08:00;;;;;;;14.85;2.60;;;;;;;25.88;51.00;101049.55;1716585;81;26517;-65
2021/06/23 15:10:29;;;;;;;46.88;4.75;;;;;;;25.83;51.01;101056.53;1718327;81;27930;-66
2021/06/23 15:12:56;;;;;;;12.60;3.42;;;;;;;25.70;51.16;101051.92;1720757;81;25827;-66
2021/06/23 15:15:22;;;;;;;8.90;3.33;;;;;;;25.45;51.26;101052.11;1683847;82;29490;-66
2021/06/23 15:17:48;;;;;;;17.35;3.75;;;;;;;25.34;51.42;101049.56;1687963;83;25961;-67
2021/06/23 15:20:18;;;;;;;7.00;2.85;;;;;;;25.20;51.67;101050.92;1687465;82;25832;-68
2021/06/23 15:22:44;;;;;;;14.83;3.65;;;;;;;24.97;50.80;101055.92;1689180;83;25931;-68
2021/06/23 15:25:13;;;;;;;13.20;2.90;;;;;;;24.65;51.25;101048.03;1697519;82;25872;-68
2021/06/23 15:27:45;;;;;;;16.60;2.87;;;;;;;24.57;51.64;101047.91;1678563;83;27790;-67
2021/06/23 15:30:15;;;;;;;9.95;3.45;;;;;;;24.61;51.95;101041.13;1689061;82;34952;-67
2021/06/23 15:32:43;;;;;;;59.33;5.97;;;;;;;24.67;52.23;101041.03;1694010;82;26409;-68
2021/06/23 15:35:12;;;;;;;30.25;4.83;;;;;;;24.76;52.45;101045.62;1694260;82;26024;-68
2021/06/23 15:37:38;;;;;;;16.50;3.67;;;;;;;24.82;52.55;101056.00;1683382;83;25762;-68
2021/06/23 15:40:10;;;;;;;5.87;2.90;;;;;;;24.68;52.51;101051.85;1692091;82;28270;-67
2021/06/23 15:42:39;;;;;;;23.45;4.33;;;;;;;24.59;52.81;101058.22;1686775;83;25845;-67
2021/06/23 15:45:10;;;;;;;12.73;4.28;;;;;;;24.54;52.97;101073.73;1672426;82;25887;-67
2021/06/23 15:47:36;;;;;;;;;;;;;;;24.36;52.77;101071.88;1664713;83;26301;-67
2021/06/23 15:50:07;;;;;;;11.43;3.42;;;;;;;24.19;52.73;101072.92;1671727;83;25828;-68
2021/06/23 15:52:35;;;;;;;8.20;2.95;;;;;;;24.13;53.07;101072.13;1643526;83;27367;-67
2021/06/23 15:55:05;;;;;;;6.55;3.00;;;;;;;24.00;52.69;101075.64;1641877;82;25809;-67
2021/06/23 15:57:34;;;;;;;9.23;2.98;;;;;;;23.92;52.92;101080.46;1671586;83;25856;-66
2021/06/23 16:00:09;;;;;;;9.15;2.92;;;;;;;23.95;53.08;101076.58;1680197;83;25874;-65
2021/06/23 16:02:38;;;;;;;7.78;2.92;;;;;;;23.93;52.89;101075.86;1678248;83;25725;-65
2021/06/23 16:05:07;;;;;;;7.62;3.62;;;;;;;23.97;52.96;101081.41;1668602;82;27415;-66
2021/06/23 16:07:35;;;;;;;7.72;3.27;;;;;;;24.24;53.27;101082.94;1644556;84;25823;-65
2021/06/23 16:10:07;;;;;;;6.72;3.30;;;;;;;25.13;52.80;101080.84;1669311;83;26421;-65
2021/06/23 16:12:33;;;;;;;11.80;3.58;;;;;;;25.91;52.70;101077.22;1725982;80;27778;-64
2021/06/23 16:15:00;;;;;;;11.97;3.58;;;;;;;26.57;52.15;101075.45;1709394;80;25710;-65
2021/06/23 16:17:28;;;;;;;10.03;3.65;;;;;;;26.83;51.34;101083.72;1712042;82;29158;-67
2021/06/23 16:19:55;;;;;;;12.23;3.58;;;;;;;26.37;51.11;101095.88;1699902;82;26100;-67
2021/06/23 16:22:29;;;;;;;21.12;4.28;;;;;;;25.75;50.74;101083.39;1705054;81;26810;-66
2021/06/23 16:24:50;;;;;;;8.75;3.45;;;;;;;25.24;51.04;101079.79;1704639;82;25862;-67
2021/06/23 16:27:19;;;;;;;9.73;2.87;;;;;;;24.91;51.23;101092.13;1690186;82;25760;-76
2021/06/23 16:29:48;;;;;;;13.70;3.87;;;;;;;24.41;50.58;101084.63;1723220;80;27549;-65
2021/06/23 16:32:19;;;;;;;9.48;2.98;;;;;;;24.24;50.86;101081.57;1723314;80;26787;-66
2021/06/23 16:34:46;;;;;;;7.47;2.62;;;;;;;24.11;51.08;101075.52;1723187;80;26000;-66
2021/06/23 16:37:13;;;;;;;13.35;3.42;;;;;;;24.00;51.12;101074.78;1706709;80;25837;-66
2021/06/23 16:39:43;;;;;;;7.03;3.37;;;;;;;23.89;50.95;101078.02;1733421;81;25834;-66
2021/06/23 16:42:10;;;;;;;8.23;2.90;;;;;;;23.85;51.25;101073.83;1722953;81;27299;-66
2021/06/23 16:44:38;;;;;;;19.73;3.50;;;;;;;23.83;51.27;101074.47;1733396;80;25736;-66
2021/06/23 16:47:07;;;;;;;12.80;3.22;;;;;;;23.91;51.48;101076.50;1732510;81;25836;-66
2021/06/23 16:49:36;;;;;;;5.97;2.90;;;;;;;24.02;51.39;101079.11;1696895;82;25765;-66
2021/06/23 16:52:05;;;;;;;9.10;2.95;;;;;;;23.94;51.24;101084.43;1676523;83;25776;-66
2021/06/23 16:54:31;;;;;;;7.10;2.80;;;;;;;24.14;51.65;101084.81;1675613;83;28088;-66
2021/06/23 16:57:02;;;;;;;5.58;2.92;;;;;;;24.61;51.10;101083.60;1677099;83;25959;-66
2021/06/23 16:59:30;;;;;;;7.10;3.35;;;;;;;24.35;50.80;101084.70;1676753;83;25960;-67
2021/06/23 17:01:58;;;;;;;5.45;2.75;;;;;;;24.11;51.07;101080.13;1679269;83;26524;-66
2021/06/23 17:04:25;;;;;;;6.10;2.80;;;;;;;24.41;51.14;101080.02;1678231;83;25841;-65
2021/06/23 17:06:56;;;;;;;9.10;2.55;;;;;;;24.84;51.36;101084.14;1679191;83;28081;-66
2021/06/23 17:09:27;;;;;;;10.18;2.98;;;;;;;25.51;50.66;101075.69;1673357;82;25863;-64
2021/06/23 17:11:55;;;;;;;8.58;3.02;;;;;;;26.03;50.82;101073.20;1692784;83;25698;-65
2021/06/23 17:14:23;;;;;;;9.68;3.55;;;;;;;26.68;50.77;101070.20;1679525;82;25772;-66
2021/06/23 17:16:53;;;;;;;6.70;2.83;;;;;;;27.03;49.38;101070.13;1719108;81;25916;-66
2021/06/23 17:19:20;;;;;;;6.50;2.95;;;;;;;27.43;49.37;101072.23;1720935;81;28918;-67
2021/06/23 17:21:51;;;;;;;5.67;2.98;;;;;;;27.43;48.44;101074.13;1732664;81;26402;-66
2021/06/23 17:24:22;;;;;;;8.83;3.00;;;;;;;27.45;48.73;101072.07;1728982;81;25935;-67
2021/06/23 17:26:49;;;;;;;7.83;2.87;;;;;;;27.70;48.77;101071.69;1715406;81;26103;-67
2021/06/23 17:32:58;;;;;;;5.17;2.42;;;;;;;26.60;47.85;101071.00;1732876;81;28149;-67
2021/06/23 17:35:25;;;;;;;5.55;2.58;;;;;;;25.86;47.89;101063.95;1721058;81;25736;-67
2021/06/23 17:37:55;;;;;;;8.03;2.37;;;;;;;25.39;47.08;101056.83;1725273;81;25843;-67
2021/06/23 17:40:27;;;;;;;7.80;2.72;;;;;;;24.89;47.76;101057.14;1708663;82;27922;-67
2021/06/23 17:46:19;;;;;;;12.43;4.15;;;;;;;24.23;48.73;101072.13;1700671;82;27465;-66
2021/06/23 17:48:46;;;;;;;15.48;3.62;;;;;;;24.19;49.14;101069.31;1658466;83;25805;-66
2021/06/23 17:51:14;;;;;;;9.70;2.90;;;;;;;24.07;49.28;101067.72;1680227;83;26450;-66
2021/06/23 17:53:42;;;;;;;5.62;2.75;;;;;;;23.84;49.54;101068.48;1671140;83;26533;-65
2021/06/23 17:56:10;;;;;;;10.82;3.25;;;;;;;23.65;49.62;101072.05;1719751;80;25866;-66
2021/06/23 17:58:42;;;;;;;14.50;3.55;;;;;;;23.52;49.97;101075.01;1691212;82;27478;-72
2021/06/23 18:01:10;;;;;;;10.80;3.77;;;;;;;23.37;50.12;101083.77;1712626;81;25791;-72
2021/06/23 18:03:41;;;;;;;11.93;3.25;;;;;;;23.26;50.42;101082.00;1641706;84;26456;-67
2021/06/23 18:06:12;;;;;;;7.90;2.60;;;;;;;23.20;50.66;101082.05;1667318;83;25673;-67
2021/06/23 18:09:15;;;;;;;11.40;2.80;;;;;;;23.18;50.86;101079.95;1650262;84;25858;-67
2021/06/23 18:11:43;;;;;;;6.85;2.95;;;;;;;22.99;50.88;101055.25;1673121;82;27394;-67
2021/06/23 18:14:19;;;;;;;8.05;3.55;;;;;;;22.95;50.91;101080.63;1667837;83;25904;-66
2021/06/23 18:16:50;;;;;;;10.20;3.12;;;;;;;22.86;51.10;101065.54;1672901;83;25793;-68
2021/06/23 18:19:14;;;;;;;7.50;3.22;;;;;;;22.93;51.27;101085.36;1677832;83;26131;-68
2021/06/23 18:21:43;;;;;;;12.50;3.85;;;;;;;22.93;51.42;101079.89;1668831;83;25750;-68
2021/06/23 18:24:11;;;;;;;7.55;2.98;;;;;;;22.87;51.33;101087.77;1670519;83;27472;-67
2021/06/23 18:26:39;;;;;;;17.98;3.52;;;;;;;22.79;51.42;101092.55;1677053;83;25785;-68
2021/06/23 18:29:06;;;;;;;11.18;2.85;;;;;;;22.72;51.64;101094.55;1677585;82;25696;-67